Time;durP1;ratioP1;P1;durP2;ratioP2;P2;SDS_P1;SDS_P2;PMS_P1;PMS_P2;Temp;Humidity;BMP_temperature;BMP_pressure;BME280_temperature;BME280_humidity;BME280_pressure;Samples;Min_cycle;Max_cycle;Signal;HPM_P1;HPM_P2
2023/01/07 00:01:25;;;;;;;;;14.50;14.50;;;;;10.73;90.76;101448.16;5065412;28;10412;-65
2023/01/07 00:03:53;;;;;;;;;20.00;18.75;;;;;10.71;90.57;101446.69;5072716;28;10410;-66
2023/01/07 00:06:22;;;;;;;;;16.75;16.75;;;;;10.64;90.71;101443.88;5072317;28;10396;-66
2023/01/07 00:08:50;;;;;;;;;20.75;20.00;;;;;10.60;90.83;101443.41;5069507;28;10621;-65
2023/01/07 00:11:19;;;;;;;;;20.00;17.75;;;;;10.58;91.52;101440.06;5072994;28;10398;-65
2023/01/07 00:13:49;;;;;;;;;21.50;20.00;;;;;10.62;91.37;101444.06;5054319;28;10516;-67
2023/01/07 00:16:18;;;;;;;;;15.00;15.00;;;;;10.66;91.10;101428.41;5065471;28;10477;-66
2023/01/07 00:18:45;;;;;;;;;18.25;16.25;;;;;10.67;90.68;101435.44;5070988;28;11124;-65
2023/01/07 00:21:15;;;;;;;;;11.50;9.25;;;;;10.64;90.97;101433.94;5073270;28;10361;-64
2023/01/07 00:23:43;;;;;;;;;17.25;16.75;;;;;10.70;90.96;101445.88;5068109;28;10241;-64
2023/01/07 00:26:12;;;;;;;;;18.00;16.75;;;;;10.72;91.02;101438.44;5065939;28;11216;-65
2023/01/07 00:28:41;;;;;;;;;18.00;16.00;;;;;10.68;90.41;101434.41;5071837;28;10369;-64
2023/01/07 00:31:11;;;;;;;;;13.00;12.00;;;;;10.69;90.50;101425.31;5068989;28;10288;-64
2023/01/07 00:34:05;;;;;;;;;17.25;14.50;;;;;10.70;90.59;101431.56;5062053;28;10540;-64
2023/01/07 00:36:43;;;;;;;;;15.75;14.00;;;;;10.69;90.34;101419.94;5052949;28;10265;-64
2023/01/07 00:39:19;;;;;;;;;20.50;15.75;;;;;10.67;90.33;101424.69;5057799;28;10997;-64
2023/01/07 00:44:33;;;;;;;;;19.75;17.50;;;;;10.64;89.95;101415.09;5050984;28;10407;-66
2023/01/07 00:46:59;;;;;;;;;21.25;19.00;;;;;10.62;89.88;101421.69;5055102;28;10537;-64
2023/01/07 00:49:26;;;;;;;;;16.75;15.25;;;;;10.62;90.13;101410.94;5071252;28;10476;-65
2023/01/07 00:51:52;;;;;;;;;10.00;9.00;;;;;10.63;90.09;101410.75;5070606;28;10360;-68
2023/01/07 00:54:19;;;;;;;;;15.25;13.00;;;;;10.62;89.79;101411.75;5067887;28;10148;-66
2023/01/07 00:56:46;;;;;;;;;16.50;15.25;;;;;10.58;90.08;101402.38;5070156;28;10260;-66
2023/01/07 00:59:12;;;;;;;;;19.50;17.00;;;;;10.55;89.92;101400.03;5071523;28;11122;-65
2023/01/07 01:01:39;;;;;;;;;14.75;14.75;;;;;10.49;90.09;101395.38;5064721;28;10265;-66
2023/01/07 01:04:07;;;;;;;;;16.25;14.75;;;;;10.56;90.09;101401.69;5067054;28;10265;-64
2023/01/07 01:06:33;;;;;;;;;14.50;13.50;;;;;10.55;89.99;101394.66;5070849;28;10420;-65
2023/01/07 01:09:00;;;;;;;;;18.50;17.50;;;;;10.57;89.74;101408.78;5068691;28;10309;-64
2023/01/07 01:11:26;;;;;;;;;19.00;17.25;;;;;10.55;90.00;101393.81;5071102;28;10449;-63
2023/01/07 01:13:53;;;;;;;;;13.00;11.25;;;;;10.56;89.58;101395.47;5071438;28;10465;-65
2023/01/07 01:16:19;;;;;;;;;15.75;14.75;;;;;10.60;89.49;101386.03;5070775;28;10322;-66
2023/01/07 01:18:47;;;;;;;;;16.00;13.75;;;;;10.60;89.64;101372.56;5060374;28;10309;-65
2023/01/07 01:21:14;;;;;;;;;16.75;12.25;;;;;10.61;89.18;101379.63;5070603;28;10360;-66
2023/01/07 01:23:41;;;;;;;;;10.00;10.00;;;;;10.66;89.43;101373.72;5065792;28;10162;-65
2023/01/07 01:26:11;;;;;;;;;15.00;14.50;;;;;10.62;89.35;101376.75;5057081;28;11045;-69
2023/01/07 01:28:38;;;;;;;;;6.00;6.00;;;;;10.68;89.15;101388.66;5066615;28;10152;-67
2023/01/07 01:31:07;;;;;;;;;14.00;12.25;;;;;10.65;88.39;101386.31;5050487;28;10151;-66
2023/01/07 01:33:52;;;;;;;;;13.75;13.00;;;;;10.55;88.81;101388.44;5052499;28;10095;-68
2023/01/07 01:36:19;;;;;;;;;16.25;15.00;;;;;10.58;88.79;101371.94;5056629;28;10483;-67
2023/01/07 01:38:45;;;;;;;;;13.75;13.25;;;;;10.55;89.01;101370.41;5065407;28;10318;-67
2023/01/07 01:41:17;;;;;;;;;17.25;13.75;;;;;10.52;88.89;101362.69;5070393;28;10366;-69
2023/01/07 01:43:45;;;;;;;;;9.00;9.00;;;;;10.56;89.05;101358.63;5065960;28;10244;-68
2023/01/07 01:46:22;;;;;;;;;16.00;15.25;;;;;10.51;88.68;101365.59;5071104;28;10942;-66
2023/01/07 01:49:01;;;;;;;;;11.25;10.00;;;;;10.58;88.45;101369.22;5070246;28;10329;-67
2023/01/07 01:51:35;;;;;;;;;12.75;11.25;;;;;10.58;88.23;101366.53;5067146;28;10239;-67
2023/01/07 01:54:05;;;;;;;;;15.00;12.00;;;;;10.53;88.64;101366.22;5066328;28;10249;-67
2023/01/07 01:56:36;;;;;;;;;11.75;11.75;;;;;10.52;88.46;101365.41;5064338;28;10445;-65
2023/01/07 01:59:07;;;;;;;;;15.00;11.50;;;;;10.45;88.41;101363.59;5049684;28;10284;-67
2023/01/07 02:01:37;;;;;;;;;10.75;10.00;;;;;10.49;87.99;101365.78;5069821;28;10543;-65
2023/01/07 02:04:12;;;;;;;;;10.50;9.00;;;;;10.57;88.14;101365.72;5065282;28;10294;-67
2023/01/07 02:06:59;;;;;;;;;17.25;15.00;;;;;10.58;88.10;101351.22;5068964;28;10315;-68
2023/01/07 02:09:27;;;;;;;;;17.25;13.25;;;;;10.55;87.95;101365.03;5067303;28;10445;-66
2023/01/07 02:12:22;;;;;;;;;16.50;15.25;;;;;10.47;87.94;101358.88;5064824;28;10399;-67
2023/01/07 02:15:13;;;;;;;;;11.00;11.00;;;;;10.53;87.58;101369.78;5063200;28;10132;-67
2023/01/07 02:18:10;;;;;;;;;13.00;12.50;;;;;10.55;87.47;101367.72;5065948;28;10181;-67
2023/01/07 02:20:47;;;;;;;;;15.25;15.25;;;;;10.46;87.37;101368.00;5062346;28;10147;-68
2023/01/07 02:24:20;;;;;;;;;12.00;9.75;;;;;10.46;87.66;101362.59;5060492;28;10923;-67
2023/01/07 02:27:01;;;;;;;;;16.50;14.50;;;;;10.48;87.58;101360.56;4997224;28;10239;-68
2023/01/07 02:30:02;;;;;;;;;14.50;14.25;;;;;10.47;87.45;101362.41;4992086;28;10342;-67
2023/01/07 02:32:50;;;;;;;;;12.00;12.00;;;;;10.51;87.20;101361.03;5050312;28;10340;-68
2023/01/07 02:36:00;;;;;;;;;14.00;13.50;;;;;10.46;87.21;101359.91;5054206;28;10461;-63
2023/01/07 02:38:50;;;;;;;;;11.75;8.50;;;;;10.48;87.14;101361.38;5066525;28;10395;-64
2023/01/07 02:41:29;;;;;;;;;13.50;13.00;;;;;10.46;87.28;101363.44;5069767;28;10214;-65
2023/01/07 02:44:04;;;;;;;;;12.75;12.75;;;;;10.40;87.45;101354.22;5056055;28;10320;-66
2023/01/07 02:46:59;;;;;;;;;14.00;11.50;;;;;10.45;87.29;101350.16;5059316;28;10262;-66
2023/01/07 02:49:26;;;;;;;;;12.25;9.50;;;;;10.48;87.17;101357.88;5066182;28;10248;-65
2023/01/07 02:51:52;;;;;;;;;11.25;10.75;;;;;10.50;87.24;101362.06;5070469;28;10146;-66
2023/01/07 02:54:25;;;;;;;;;11.75;11.75;;;;;10.54;86.99;101357.16;5064426;28;10237;-64
2023/01/07 02:57:23;;;;;;;;;17.25;15.00;;;;;10.51;87.03;101355.66;5064478;28;10311;-65
2023/01/07 03:00:36;;;;;;;;;17.00;15.25;;;;;10.43;86.81;101347.66;5050250;28;10352;-65
2023/01/07 03:03:14;;;;;;;;;17.75;16.50;;;;;10.49;86.84;101346.94;5049441;28;10306;-66
2023/01/07 03:05:57;;;;;;;;;11.00;10.75;;;;;10.54;86.54;101338.31;5065190;28;10317;-65
2023/01/07 03:08:48;;;;;;;;;16.75;15.25;;;;;10.51;86.30;101330.59;5068777;28;10139;-65
2023/01/07 03:11:18;;;;;;;;;17.50;15.00;;;;;10.46;86.45;101324.94;5067631;28;10317;-65
2023/01/07 03:13:52;;;;;;;;;12.00;12.00;;;;;10.45;86.69;101323.22;5060548;28;10958;-67
2023/01/07 03:16:35;;;;;;;;;16.75;14.25;;;;;10.42;86.85;101329.00;5067692;28;10379;-67
2023/01/07 03:19:17;;;;;;;;;18.00;15.50;;;;;10.48;86.75;101318.31;5059185;28;10394;-67
2023/01/07 03:21:46;;;;;;;;;14.75;14.75;;;;;10.53;86.40;101325.84;5072072;28;10390;-68
2023/01/07 03:24:14;;;;;;;;;21.00;18.50;;;;;10.55;86.78;101319.28;5061537;28;10309;-68
2023/01/07 03:26:47;;;;;;;;;16.75;16.25;;;;;10.54;86.24;101319.47;5052857;28;10331;-67
2023/01/07 03:29:16;;;;;;;;;18.00;18.00;;;;;10.50;86.46;101316.31;5062329;28;10219;-68
2023/01/07 03:32:00;;;;;;;;;16.50;16.50;;;;;10.50;86.26;101323.53;5072855;28;10490;-66
2023/01/07 03:34:29;;;;;;;;;17.25;17.25;;;;;10.47;86.41;101315.81;5062095;28;10391;-67
2023/01/07 03:37:02;;;;;;;;;15.50;14.00;;;;;10.51;86.42;101312.59;5071761;28;10519;-65
2023/01/07 03:39:34;;;;;;;;;14.25;12.75;;;;;10.57;86.39;101311.00;5073412;28;10121;-67
2023/01/07 03:44:53;;;;;;;;;12.50;12.50;;;;;10.58;85.40;101313.53;5073659;28;10368;-68
2023/01/07 03:47:22;;;;;;;;;16.75;16.75;;;;;10.57;85.70;101306.47;5068452;28;10099;-69
2023/01/07 03:49:49;;;;;;;;;18.00;15.75;;;;;10.59;85.63;101303.59;5069456;28;10401;-69
2023/01/07 03:52:16;;;;;;;;;22.25;16.00;;;;;10.57;85.63;101301.09;5071954;28;10234;-69
2023/01/07 03:54:42;;;;;;;;;15.00;15.00;;;;;10.58;85.48;101302.75;5072085;28;10419;-68
2023/01/07 03:57:09;;;;;;;;;19.00;15.75;;;;;10.57;85.46;101308.31;5070723;28;10196;-66
2023/01/07 03:59:35;;;;;;;;;18.25;14.00;;;;;10.56;85.27;101294.03;5059845;28;10170;-67
2023/01/07 04:02:03;;;;;;;;;17.00;14.50;;;;;10.50;85.35;101288.56;5055638;28;10238;-67
2023/01/07 04:04:31;;;;;;;;;14.00;14.00;;;;;10.47;85.34;101288.91;5060031;28;10261;-67
2023/01/07 04:06:58;;;;;;;;;12.00;10.75;;;;;10.45;85.48;101285.56;5058448;28;10098;-67
2023/01/07 04:09:25;;;;;;;;;15.00;15.00;;;;;10.43;85.43;101284.91;5052248;28;10143;-68
2023/01/07 04:11:52;;;;;;;;;15.00;14.50;;;;;10.43;85.43;101276.84;5053273;28;10172;-68
2023/01/07 04:14:18;;;;;;;;;17.50;14.75;;;;;10.39;85.28;101279.06;5068406;28;10405;-66
2023/01/07 04:16:44;;;;;;;;;11.75;11.75;;;;;10.34;85.61;101271.53;5069035;28;10468;-66
2023/01/07 04:19:11;;;;;;;;;13.00;13.00;;;;;10.27;85.46;101278.66;5076443;28;10234;-66
2023/01/07 04:21:38;;;;;;;;;19.25;14.50;;;;;10.24;85.81;101272.75;5062485;28;10299;-67
2023/01/07 04:24:05;;;;;;;;;13.25;10.00;;;;;10.30;85.96;101272.91;5068547;28;10165;-67
2023/01/07 04:26:32;;;;;;;;;16.00;15.00;;;;;10.31;85.65;101271.06;5072202;28;10154;-68
2023/01/07 04:28:59;;;;;;;;;12.00;11.25;;;;;10.31;85.58;101258.44;5051913;28;11081;-66
2023/01/07 04:31:26;;;;;;;;;12.50;12.00;;;;;10.30;85.41;101264.00;5070743;28;10386;-68
2023/01/07 04:33:53;;;;;;;;;14.75;14.50;;;;;10.23;85.45;101257.66;5068475;28;11189;-67
2023/01/07 04:36:20;;;;;;;;;17.25;12.25;;;;;10.27;85.39;101258.97;5063871;28;10400;-67
2023/01/07 04:38:47;;;;;;;;;13.50;13.00;;;;;10.22;85.59;101255.97;5051955;28;10456;-66
2023/01/07 04:41:15;;;;;;;;;12.00;11.25;;;;;10.26;85.67;101255.47;5067798;28;10410;-67
2023/01/07 04:43:41;;;;;;;;;13.50;9.25;;;;;10.27;85.15;101248.22;5067588;28;10306;-67
2023/01/07 04:46:08;;;;;;;;;16.00;11.00;;;;;10.28;85.14;101258.78;5051141;28;10422;-68
2023/01/07 04:48:35;;;;;;;;;13.75;12.25;;;;;10.26;85.05;101250.09;5064536;28;10402;-67
2023/01/07 04:51:02;;;;;;;;;10.25;8.75;;;;;10.25;84.86;101255.63;5070636;28;10164;-67
2023/01/07 04:53:28;;;;;;;;;12.00;11.75;;;;;10.25;85.00;101242.16;5065291;28;10279;-68
2023/01/07 04:55:55;;;;;;;;;11.50;11.50;;;;;10.25;85.14;101248.41;5065652;28;10345;-68
2023/01/07 04:58:22;;;;;;;;;10.50;10.50;;;;;10.24;84.99;101235.94;5064563;28;10354;-68
2023/01/07 05:00:53;;;;;;;;;16.75;15.50;;;;;10.25;84.84;101239.47;5067312;28;10295;-68
2023/01/07 05:03:20;;;;;;;;;12.75;12.00;;;;;10.21;85.43;101233.63;5068116;28;10238;-68
2023/01/07 05:05:47;;;;;;;;;13.00;10.00;;;;;10.25;85.35;101226.03;5070953;28;10233;-68
2023/01/07 05:08:14;;;;;;;;;12.25;12.25;;;;;10.18;84.94;101228.59;5070938;28;10071;-67
2023/01/07 05:10:41;;;;;;;;;13.00;10.50;;;;;10.19;85.21;101227.56;5057093;28;10397;-68
2023/01/07 05:13:14;;;;;;;;;14.00;10.00;;;;;10.22;85.63;101219.16;5067262;28;10350;-67
2023/01/07 05:15:41;;;;;;;;;14.50;13.50;;;;;10.18;84.99;101219.69;5067150;28;10916;-67
2023/01/07 05:18:08;;;;;;;;;11.25;10.75;;;;;10.20;85.34;101215.78;5065253;28;10391;-68
2023/01/07 05:20:35;;;;;;;;;13.25;11.00;;;;;10.22;85.00;101216.44;5071637;28;10310;-67
2023/01/07 05:23:03;;;;;;;;;11.75;11.75;;;;;10.21;84.99;101209.41;5067227;28;10480;-67
2023/01/07 05:25:32;;;;;;;;;15.25;12.75;;;;;10.19;85.25;101200.66;5054086;28;10555;-66
2023/01/07 05:27:59;;;;;;;;;19.00;15.25;;;;;10.21;85.32;101200.47;5054290;28;10488;-66
2023/01/07 05:30:28;;;;;;;;;13.50;13.50;;;;;10.15;85.21;101207.44;5062351;28;11163;-67
2023/01/07 05:32:55;;;;;;;;;18.75;17.00;;;;;10.13;85.64;101202.25;5067040;28;10353;-68
2023/01/07 05:35:23;;;;;;;;;11.00;10.50;;;;;10.23;85.49;101207.34;5050017;28;10275;-67
2023/01/07 05:37:49;;;;;;;;;22.25;15.75;;;;;10.18;85.32;101209.75;5050721;28;10305;-67
2023/01/07 05:40:17;;;;;;;;;17.00;15.00;;;;;10.12;85.71;101199.72;5060069;28;10486;-67
2023/01/07 05:42:43;;;;;;;;;16.25;12.50;;;;;10.16;85.36;101201.84;5056242;28;10466;-68
2023/01/07 05:45:10;;;;;;;;;18.75;16.75;;;;;10.13;85.55;101191.50;5058107;28;10304;-68
2023/01/07 05:47:37;;;;;;;;;21.75;16.50;;;;;10.05;86.26;101179.97;5069209;28;10576;-66
2023/01/07 05:50:03;;;;;;;;;13.50;12.25;;;;;10.02;86.55;101191.91;5057488;28;10417;-67
2023/01/07 05:52:30;;;;;;;;;12.00;12.00;;;;;10.11;86.37;101182.75;5060827;28;10579;-68
2023/01/07 05:54:56;;;;;;;;;15.50;12.50;;;;;10.12;86.56;101181.72;5070431;28;10285;-68
2023/01/07 05:57:23;;;;;;;;;12.25;12.25;;;;;10.18;86.01;101176.66;5070700;28;10454;-68
2023/01/07 05:59:49;;;;;;;;;13.25;12.75;;;;;10.12;86.09;101172.81;5069893;28;10312;-66
2023/01/07 06:02:16;;;;;;;;;15.00;13.00;;;;;10.14;85.97;101177.00;5063045;28;10422;-69
2023/01/07 06:04:43;;;;;;;;;14.75;14.50;;;;;10.09;86.04;101170.53;5063465;28;10546;-68
2023/01/07 06:07:09;;;;;;;;;14.50;12.75;;;;;10.06;86.14;101176.25;5061562;28;10424;-66
2023/01/07 06:09:35;;;;;;;;;16.75;15.75;;;;;10.00;86.46;101166.22;5069783;28;10513;-68
2023/01/07 06:12:02;;;;;;;;;19.50;16.00;;;;;10.03;86.04;101165.84;5069729;28;10509;-68
2023/01/07 06:14:28;;;;;;;;;14.50;12.75;;;;;10.02;85.90;101166.88;5057722;28;10410;-68
2023/01/07 06:16:55;;;;;;;;;11.75;11.00;;;;;10.00;86.39;101153.59;5069367;28;10370;-69
2023/01/07 06:19:21;;;;;;;;;17.50;14.00;;;;;10.02;86.27;101153.44;5070500;28;11359;-68
2023/01/07 06:21:48;;;;;;;;;9.00;8.00;;;;;10.03;86.59;101147.88;5060879;28;10489;-67
2023/01/07 06:24:15;;;;;;;;;12.50;12.00;;;;;10.03;86.18;101145.16;5050812;28;10463;-69
2023/01/07 06:26:41;;;;;;;;;14.25;14.00;;;;;9.95;86.30;101136.34;5050957;28;10377;-68
2023/01/07 06:29:09;;;;;;;;;14.50;14.50;;;;;9.94;86.54;101132.00;5062076;28;10422;-66
2023/01/07 06:31:36;;;;;;;;;13.25;11.25;;;;;9.95;85.96;101125.59;5067293;28;11442;-66
2023/01/07 06:34:02;;;;;;;;;13.25;11.00;;;;;9.90;86.29;101129.66;5067129;28;10424;-68
2023/01/07 06:36:29;;;;;;;;;13.50;10.75;;;;;9.96;86.55;101132.63;5067519;28;10492;-67
2023/01/07 06:38:55;;;;;;;;;9.50;9.50;;;;;9.99;85.99;101129.59;5068454;28;10312;-68
2023/01/07 06:41:21;;;;;;;;;13.75;11.50;;;;;9.97;85.81;101123.56;5059468;28;10338;-67
2023/01/07 06:43:48;;;;;;;;;12.25;11.75;;;;;9.86;85.86;101124.84;5057538;28;10431;-67
2023/01/07 06:46:14;;;;;;;;;11.25;10.00;;;;;9.87;85.76;101121.13;5066042;28;10447;-66
2023/01/07 06:48:41;;;;;;;;;11.75;10.00;;;;;9.87;85.82;101119.28;5067741;28;10369;-67
2023/01/07 06:51:07;;;;;;;;;9.75;8.25;;;;;9.90;85.55;101120.78;5057928;28;10996;-68
2023/01/07 06:53:34;;;;;;;;;10.00;9.00;;;;;9.90;85.69;101124.28;5062523;28;11040;-67
2023/01/07 06:56:00;;;;;;;;;15.75;13.25;;;;;9.87;85.33;101119.28;5069184;28;10265;-70
2023/01/07 06:58:27;;;;;;;;;9.00;9.00;;;;;9.88;85.34;101112.03;5061838;28;10420;-69
2023/01/07 07:00:53;;;;;;;;;12.00;9.00;;;;;9.86;85.46;101116.78;5066869;28;10274;-67
2023/01/07 07:03:20;;;;;;;;;12.75;9.00;;;;;9.84;85.39;101114.28;5069733;28;11108;-68
2023/01/07 07:05:46;;;;;;;;;6.50;6.50;;;;;9.83;85.06;101103.69;5065488;28;10248;-68
2023/01/07 07:08:12;;;;;;;;;11.50;9.00;;;;;9.82;85.28;101113.63;5050729;28;10190;-68
2023/01/07 07:10:39;;;;;;;;;9.00;8.75;;;;;9.83;85.18;101114.44;5053741;28;10247;-64
2023/01/07 07:13:05;;;;;;;;;8.75;6.50;;;;;9.70;85.36;101100.81;5064248;28;10211;-67
2023/01/07 07:15:32;;;;;;;;;7.00;7.00;;;;;9.66;85.29;101117.28;5069974;28;10240;-67
2023/01/07 07:17:58;;;;;;;;;12.75;10.00;;;;;9.68;85.33;101109.03;5069711;28;10454;-68
2023/01/07 07:20:24;;;;;;;;;6.50;5.75;;;;;9.72;84.98;101104.97;5070259;28;10305;-68
2023/01/07 07:22:51;;;;;;;;;9.00;8.00;;;;;9.74;85.57;101100.25;5067851;28;10223;-69
2023/01/07 07:25:18;;;;;;;;;8.50;7.50;;;;;9.71;85.08;101095.22;5057579;28;10214;-66
2023/01/07 07:27:45;;;;;;;;;6.25;6.25;;;;;9.75;84.86;101095.72;5065505;28;10371;-66
2023/01/07 07:30:14;;;;;;;;;9.75;8.00;;;;;9.76;84.72;101097.38;5070064;28;10043;-64
2023/01/07 07:32:41;;;;;;;;;7.25;6.50;;;;;9.69;84.69;101091.91;5068694;28;10325;-65
2023/01/07 07:35:08;;;;;;;;;6.25;6.00;;;;;9.60;85.08;101088.47;5069647;28;10283;-65
2023/01/07 07:37:35;;;;;;;;;9.50;7.50;;;;;9.63;85.08;101081.88;5065158;28;10295;-65
2023/01/07 07:40:03;;;;;;;;;7.00;5.00;;;;;9.71;84.87;101089.84;5063155;28;10221;-65
2023/01/07 07:42:30;;;;;;;;;3.50;3.50;;;;;9.68;84.90;101094.75;5057899;28;10215;-66
2023/01/07 07:44:57;;;;;;;;;7.75;7.75;;;;;9.72;84.82;101086.13;5068256;28;10174;-64
2023/01/07 07:47:24;;;;;;;;;8.00;7.00;;;;;9.80;84.56;101087.91;5065928;28;10160;-64
2023/01/07 07:49:50;;;;;;;;;7.00;7.00;;;;;9.76;84.19;101083.94;5069722;28;10193;-66
2023/01/07 07:52:17;;;;;;;;;5.50;5.00;;;;;9.77;84.19;101078.38;5068154;28;10122;-64
2023/01/07 07:54:43;;;;;;;;;3.00;3.00;;;;;9.75;84.56;101079.56;5049272;28;10079;-64
2023/01/07 07:57:10;;;;;;;;;5.25;4.75;;;;;9.75;84.13;101079.56;5058696;28;10868;-65
2023/01/07 07:59:36;;;;;;;;;6.25;4.00;;;;;9.79;84.16;101083.56;5068039;28;10943;-68
2023/01/07 08:02:03;;;;;;;;;5.25;5.25;;;;;9.84;83.82;101073.09;5056864;28;10817;-64
2023/01/07 08:04:32;;;;;;;;;5.00;5.00;;;;;9.87;84.70;101068.19;5069288;28;10106;-65
2023/01/07 08:07:00;;;;;;;;;4.00;4.00;;;;;10.02;84.51;101078.13;5065895;28;10100;-65
2023/01/07 08:09:27;;;;;;;;;5.50;5.00;;;;;9.98;83.75;101066.06;5068176;28;10177;-66
2023/01/07 08:11:53;;;;;;;;;5.00;3.50;;;;;9.95;83.07;101066.44;5066322;28;9983;-66
2023/01/07 08:14:20;;;;;;;;;3.00;2.75;;;;;9.86;83.23;101065.69;5070706;28;10116;-65
2023/01/07 08:16:46;;;;;;;;;4.00;2.00;;;;;9.85;83.22;101064.84;5072709;28;10133;-66
2023/01/07 08:19:13;;;;;;;;;3.50;3.50;;;;;9.89;83.17;101060.78;5062756;28;10076;-66
2023/01/07 08:21:40;;;;;;;;;2.50;2.50;;;;;9.82;82.99;101065.22;5065891;28;9982;-65
2023/01/07 08:24:07;;;;;;;;;4.75;4.75;;;;;9.79;82.57;101064.75;5065548;28;10089;-68
2023/01/07 08:26:33;;;;;;;;;7.25;5.00;;;;;9.76;83.00;101059.72;5070541;28;10040;-66
2023/01/07 08:29:00;;;;;;;;;8.75;4.75;;;;;9.80;82.64;101050.28;5069499;28;10159;-65
2023/01/07 08:31:26;;;;;;;;;1.25;1.25;;;;;9.88;81.91;101056.44;5072696;28;9936;-66
2023/01/07 08:33:52;;;;;;;;;3.00;3.00;;;;;9.85;81.78;101055.97;5056822;28;9946;-65
2023/01/07 08:36:19;;;;;;;;;5.75;4.00;;;;;9.86;81.53;101052.25;5053861;28;9910;-64
2023/01/07 08:38:51;;;;;;;;;2.00;2.00;;;;;10.00;82.43;101053.25;5056732;28;9835;-65
2023/01/07 08:41:21;;;;;;;;;2.25;2.00;;;;;10.05;81.84;101053.56;5065234;28;10004;-65
2023/01/07 08:43:48;;;;;;;;;3.00;2.25;;;;;10.01;81.00;101061.16;5063025;28;10648;-66
2023/01/07 08:46:14;;;;;;;;;2.00;2.00;;;;;9.83;80.86;101048.06;5058741;28;9847;-66
2023/01/07 08:48:41;;;;;;;;;2.25;2.25;;;;;9.76;81.46;101043.59;5072104;28;9910;-65
2023/01/07 08:51:07;;;;;;;;;3.00;3.00;;;;;9.81;81.14;101033.16;5072643;28;9938;-64
2023/01/07 08:53:34;;;;;;;;;6.50;3.00;;;;;9.84;81.03;101025.56;5064604;28;9739;-66
2023/01/07 08:56:00;;;;;;;;;3.00;3.00;;;;;9.88;80.46;101026.84;5068004;28;10593;-65
2023/01/07 08:58:27;;;;;;;;;2.50;2.50;;;;;9.78;80.80;101030.81;5066003;28;9919;-65
2023/01/07 09:00:53;;;;;;;;;2.25;2.25;;;;;9.78;80.64;101034.34;5059541;28;10649;-67
2023/01/07 09:03:20;;;;;;;;;1.00;1.00;;;;;9.83;80.16;101031.09;5058517;28;9937;-67
2023/01/07 09:05:46;;;;;;;;;2.00;2.00;;;;;9.84;80.34;101016.63;5070535;28;10118;-66
2023/01/07 09:08:13;;;;;;;;;3.50;3.00;;;;;9.86;79.85;101020.81;5060231;28;10686;-66
2023/01/07 09:10:39;;;;;;;;;1.00;1.00;;;;;9.87;79.56;101011.72;5071732;28;9847;-67
2023/01/07 09:13:06;;;;;;;;;2.00;0.50;;;;;9.90;79.05;101014.03;5071691;28;10006;-67
2023/01/07 09:15:33;;;;;;;;;2.25;1.50;;;;;9.88;79.53;101013.41;5067993;28;9936;-67
2023/01/07 09:18:02;;;;;;;;;3.00;2.00;;;;;9.85;79.69;101010.25;5057698;28;9960;-68
2023/01/07 09:20:29;;;;;;;;;1.00;1.00;;;;;9.92;79.37;101003.09;5072187;28;10072;-68
2023/01/07 09:22:55;;;;;;;;;3.75;1.75;;;;;9.95;79.18;100997.34;5070054;28;9765;-69
2023/01/07 09:25:22;;;;;;;;;2.00;2.00;;;;;9.86;78.80;100999.31;5069775;28;9741;-68
2023/01/07 09:27:48;;;;;;;;;3.25;1.00;;;;;9.91;78.79;100988.00;5070143;28;9848;-69
2023/01/07 09:30:15;;;;;;;;;3.00;3.00;;;;;9.90;78.50;100999.78;5067570;28;10033;-66
2023/01/07 09:32:42;;;;;;;;;8.50;4.75;;;;;9.83;78.50;100996.97;5065063;28;10535;-68
2023/01/07 09:35:09;;;;;;;;;2.00;2.00;;;;;9.85;77.93;100988.75;5063941;28;10240;-68
2023/01/07 09:37:36;;;;;;;;;0.75;0.75;;;;;9.87;78.04;100984.00;5061371;28;10044;-68
2023/01/07 09:40:13;;;;;;;;;2.00;2.00;;;;;9.87;78.32;100984.00;5069886;28;9895;-67
2023/01/07 09:42:50;;;;;;;;;1.75;1.75;;;;;9.85;77.76;100961.84;5070355;28;9906;-66
2023/01/07 09:45:31;;;;;;;;;2.25;1.00;;;;;9.90;77.45;100979.09;5060330;28;9947;-68
2023/01/07 09:48:01;;;;;;;;;2.00;1.00;;;;;9.97;76.85;100965.75;5064529;28;10498;-67
2023/01/07 09:50:40;;;;;;;;;1.00;1.00;;;;;9.93;77.17;100969.81;5071474;28;10605;-68
2023/01/07 09:53:13;;;;;;;;;1.50;1.50;;;;;10.00;77.18;100959.13;5062531;28;9830;-66
2023/01/07 09:55:41;;;;;;;;;2.00;1.00;;;;;9.94;76.59;100959.91;5070428;28;9948;-69
2023/01/07 09:58:27;;;;;;;;;2.00;2.00;;;;;9.98;76.50;100958.50;5063490;28;9807;-66
2023/01/07 10:01:05;;;;;;;;;3.50;1.00;;;;;9.91;76.19;100953.88;5069091;28;9848;-67
2023/01/07 10:03:48;;;;;;;;;1.00;1.00;;;;;9.93;75.75;100950.19;5069410;28;10452;-67
2023/01/07 10:06:37;;;;;;;;;2.00;2.00;;;;;10.03;75.95;100956.06;5063234;28;9803;-66
2023/01/07 10:09:34;;;;;;;;;1.00;1.00;;;;;10.06;75.60;100955.72;5065964;28;10436;-68
2023/01/07 10:12:13;;;;;;;;;0.25;0.25;;;;;10.12;75.93;100942.31;5065005;28;9897;-68
2023/01/07 10:14:50;;;;;;;;;1.00;1.00;;;;;10.16;75.37;100937.41;5053007;28;9827;-67
2023/01/07 10:17:41;;;;;;;;;1.75;1.75;;;;;10.10;74.85;100924.72;5058392;28;9876;-67
2023/01/07 10:20:41;;;;;;;;;0.50;0.50;;;;;10.19;75.06;100923.59;5062215;28;9748;-67
2023/01/07 10:23:14;;;;;;;;;0.75;0.75;;;;;10.15;74.63;100909.69;5065531;28;9734;-67
2023/01/07 10:25:51;;;;;;;;;1.00;1.00;;;;;10.17;74.52;100909.50;5070367;28;9583;-67
2023/01/07 10:28:33;;;;;;;;;0.75;0.75;;;;;10.13;74.11;100902.84;5056349;28;9692;-68
2023/01/07 10:31:01;;;;;;;;;4.00;1.00;;;;;10.15;73.52;100901.59;5052864;28;9845;-68
2023/01/07 10:33:31;;;;;;;;;1.00;1.00;;;;;10.27;73.72;100887.69;5055214;28;10465;-67
2023/01/07 10:36:24;;;;;;;;;0.00;0.00;;;;;10.34;73.39;100900.19;5061812;28;9857;-68
2023/01/07 10:39:12;;;;;;;;;0.00;0.00;;;;;10.34;72.94;100884.06;5063153;28;9845;-69
2023/01/07 10:41:57;;;;;;;;;2.25;1.00;;;;;10.28;72.88;100879.41;5070385;28;9971;-67
2023/01/07 10:44:43;;;;;;;;;1.00;1.00;;;;;10.32;72.18;100866.41;5063965;28;9994;-68
2023/01/07 10:47:29;;;;;;;;;0.00;0.00;;;;;10.31;72.09;100870.97;5058260;28;9680;-68
2023/01/07 10:50:20;;;;;;;;;0.50;0.50;;;;;10.40;71.80;100859.03;5063072;28;9586;-68
2023/01/07 10:53:04;;;;;;;;;0.00;0.00;;;;;10.55;71.66;100842.84;5050370;28;9665;-69
2023/01/07 10:55:45;;;;;;;;;2.00;2.00;;;;;10.52;71.19;100835.16;5052818;28;9743;-69
2023/01/07 10:58:11;;;;;;;;;2.00;2.00;;;;;10.44;71.23;100827.22;5065081;28;9760;-68
2023/01/07 11:00:39;;;;;;;;;2.50;1.00;;;;;10.50;71.07;100839.91;5070067;28;9864;-68
2023/01/07 11:03:17;;;;;;;;;1.00;1.00;;;;;10.61;71.27;100825.94;5063095;28;9664;-69
2023/01/07 11:05:45;;;;;;;;;1.25;1.25;;;;;10.50;70.92;100813.00;5061934;28;9586;-68
2023/01/07 11:08:28;;;;;;;;;0.25;0.25;;;;;10.70;70.49;100812.31;5065783;28;9523;-67
2023/01/07 11:10:54;;;;;;;;;1.00;1.00;;;;;10.72;70.35;100804.88;5050968;28;9684;-67
2023/01/07 11:13:30;;;;;;;;;0.00;0.00;;;;;10.63;70.84;100794.25;5049994;28;9704;-68
2023/01/07 11:16:20;;;;;;;;;0.00;0.00;;;;;10.66;70.88;100793.03;5050095;28;9606;-69
2023/01/07 11:18:53;;;;;;;;;0.50;0.00;;;;;10.66;70.10;100794.91;5061699;28;9618;-69
2023/01/07 11:21:31;;;;;;;;;0.25;0.25;;;;;10.70;70.38;100790.78;5069969;28;9594;-66
2023/01/07 11:24:18;;;;;;;;;1.25;1.25;;;;;10.71;69.88;100785.19;5064359;28;9668;-68
2023/01/07 11:26:45;;;;;;;;;0.25;0.25;;;;;10.71;69.53;100781.66;5070362;28;10371;-68
2023/01/07 11:29:28;;;;;;;;;4.50;3.00;;;;;10.72;70.05;100769.88;5069837;28;9611;-68
2023/01/07 11:31:57;;;;;;;;;0.00;0.00;;;;;10.77;69.86;100770.94;5064737;28;9657;-67
2023/01/07 11:34:25;;;;;;;;;0.50;0.50;;;;;10.72;69.62;100777.94;5066517;28;9557;-68
2023/01/07 11:36:52;;;;;;;;;1.50;1.00;;;;;10.76;69.30;100758.50;5059275;28;9560;-68
2023/01/07 11:39:22;;;;;;;;;1.00;1.00;;;;;10.68;69.53;100750.56;5058349;28;9760;-67
2023/01/07 11:45:22;;;;;;;;;1.50;1.50;;;;;10.67;69.33;100748.09;5071017;28;9792;-68
2023/01/07 11:48:03;;;;;;;;;0.50;0.50;;;;;10.69;69.33;100741.47;5069981;28;9796;-69